Airfield :
LOGIN :

Register | Disclaimer

   EN    FR    IT 

 










Legend :    VFR   Marginal VFR   IFR   Intensive IFR   Very Intensive IFR
Visi :
Ceiling :
>= 8 km
>= 3000ft
5 to 8 km
1000 to 3000 ft
1500m to 5 km
500 to 1000 ft
800 to 1500m
200 to 500 ft
< 800m
< 200 ft
Symbols :   Thunderstorms  Fog  Heavy snow  Heavy precipitations  Wind > 20 kt
SIGMETs :     Misc.  Thunderstorms  Icing  Turbulence  Mountain Waves  Volcanic Ashes






- Airport Elevation : 2096 ft
- IATA code : AUR


LFLW - Aurillac

CURRENT METAR :
  • 131000Z AUTO 30013KT 260V340 9999 // ////// 06/04 Q0996

EXPIRED METARs :
  • 130930Z AUTO 30012KT 270V330 9999 -RA ////// 06/05 Q0996
  • 130900Z AUTO 30011KT 270V350 9999 -RA ////// 06/05 Q0995
  • 130830Z AUTO 31015KT 9999 // ////// 05/03 Q0994
  • 130800Z AUTO 29013G25KT 260V320 9000 -RA ////// 06/05 Q0994
  • 130730Z AUTO 30012KT 260V330 9999 DZ ////// 06/05 Q0993

TAF AMD TAF LFLW
Valid from the 13 at 09:00 until the 13 at 18:00 UTC


130921Z 1309/1318 30015G25KT 9999 SCT012 BKN025
TEMPO 1309/1318 30025G40KT 3000 SHRA BKN009 SCT020TCU



MET'MAP, your aeronautical weather chart ! - Copyright ORBIFLY December 2007 - Disclaimer

ORBIFLY MET'MAP TEAM :

Programming & Development : Alexandra Zaïnal
Concept & original design : Baudouin d'Aumeries
Assistance for programming : Marc-Olivier Méhu
Technical & hardware support : Manuel Goepfert

Contact : metmap@orbifly.com




SOURCES & CREDITS :

   NOAA